Pagrindinis puslapis
METAR-TAF:

METAR-TAF

Oro uostai :

Platinum, Aliaska, Jungtinės Amerikos Valstijos

platuma: 59-01N, ilguma: 161-49W, Aukštis: 3 m

Dabartinis oras

Ataskaita buvo paskelbta 35 minutes, ne 03:56 UTC
Vėjas 17 kt iš Vakarų/Šiaurės Vakarų
Temperatūra 13°C
Drėgmė 88%
Slėgis 1003 hPa
Matomumas: 16.1 km
Su prošvaistėmis ne aukštis 1200 ft
Apsiniaukę ne aukštis 3100 ft

METAR: PAPM 160356Z AUTO 29017KT 10SM BKN012 OVC031 13/11 A2961 RMK AO2 RAE0259 SLP030 P0000 T01280111

Laikas: 20:31 (04:31 UTC)


TAF: trūkstamas

Orai ataskaitas ir orų prognozės (METAR, TAF).

turimą stotys yra geltonos ir raudonos taškus žemėlapyje.

Perkelti pele per norėdami pamatyti stoties vardą.

Tada spustelėkite, norėdami matyti oro stebėjimo ir prognozės.

Norėdami pakeisti žemėlapį: spustelėkite ant žalios mygtukų su juodo kryžiaus žemyn,; žalią mygtuką su brūkšneliu, jei norite nutolinti; arba žalių rodyklių gretimoms žemėlapius.


METAR-TAF: